Time;durP1;ratioP1;P1;durP2;ratioP2;P2;SDS_P1;SDS_P2;PMS_P1;PMS_P2;Temp;Humidity;BMP_temperature;BMP_pressure;BME280_temperature;BME280_humidity;BME280_pressure;Samples;Min_cycle;Max_cycle;Signal;HPM_P1;HPM_P2
2023/03/24 00:02:15;;;;;;;9.43;7.35;;;;;;;6.13;100.00;62626.44;5028523;28;20519;-75
2023/03/24 00:04:42;;;;;;;8.48;7.15;;;;;;;6.10;100.00;62627.88;5045820;28;20202;-74
2023/03/24 00:07:13;;;;;;;8.80;6.18;;;;;;;6.12;100.00;62624.91;5027983;28;20286;-74
2023/03/24 00:09:42;;;;;;;7.32;5.35;;;;;;;6.07;100.00;62622.25;5025324;28;20237;-75
2023/03/24 00:12:09;;;;;;;5.93;5.40;;;;;;;6.04;100.00;62619.19;5033166;28;20218;-75
2023/03/24 00:14:37;;;;;;;10.23;5.68;;;;;;;5.98;100.00;62621.09;5034241;28;20199;-75
2023/03/24 00:17:05;;;;;;;6.13;5.53;;;;;;;5.97;100.00;62612.47;5019724;28;20219;-73
2023/03/24 00:19:37;;;;;;;5.70;5.20;;;;;;;5.95;100.00;62612.44;5042348;28;20229;-75
2023/03/24 00:22:04;;;;;;;6.53;4.88;;;;;;;5.92;100.00;62609.84;5035622;28;20219;-74
2023/03/24 00:24:32;;;;;;;7.80;6.28;;;;;;;5.91;100.00;62608.28;5029595;28;20199;-74
2023/03/24 00:27:02;;;;;;;6.22;5.18;;;;;;;5.87;100.00;62601.66;5022165;28;20252;-74
2023/03/24 00:29:29;;;;;;;7.72;5.70;;;;;;;5.83;100.00;62601.09;5046055;28;20212;-76
2023/03/24 00:31:56;;;;;;;5.97;5.38;;;;;;;5.87;100.00;62601.66;5040955;28;20215;-74
2023/03/24 00:34:23;;;;;;;7.45;6.72;;;;;;;5.87;100.00;62599.63;5023045;28;20218;-75
2023/03/24 00:36:51;;;;;;;11.75;7.85;;;;;;;5.83;100.00;62598.56;5038073;28;20226;-74
2023/03/24 00:39:19;;;;;;;11.10;8.10;;;;;;;5.82;100.00;62595.00;5046617;28;20260;-75
2023/03/24 00:41:47;;;;;;;7.10;6.28;;;;;;;5.84;100.00;62602.13;5029951;28;20218;-74
2023/03/24 00:44:17;;;;;;;6.00;5.45;;;;;;;5.85;100.00;62603.16;5025929;28;20292;-74
2023/03/24 00:46:54;;;;;;;7.63;5.93;;;;;;;5.83;100.00;62598.06;5026485;28;20489;-75
2023/03/24 00:49:40;;;;;;;7.70;6.63;;;;;;;5.81;100.00;62595.97;5026762;28;20216;-75
2023/03/24 00:52:09;;;;;;;7.22;5.65;;;;;;;5.74;100.00;62588.75;5024337;28;20222;-75
2023/03/24 00:54:36;;;;;;;7.28;6.18;;;;;;;5.66;100.00;62575.97;5024906;28;20453;-75
2023/03/24 00:57:05;;;;;;;8.85;6.32;;;;;;;5.65;100.00;62574.44;5025588;28;20233;-74
2023/03/24 00:59:36;;;;;;;10.02;7.35;;;;;;;5.61;100.00;62575.34;5025957;28;20234;-73
2023/03/24 01:02:05;;;;;;;9.48;6.82;;;;;;;5.56;100.00;62567.69;5020239;28;20456;-73
2023/03/24 01:04:34;;;;;;;9.15;6.97;;;;;;;5.54;100.00;62571.19;5006969;28;20200;-74
2023/03/24 01:07:02;;;;;;;8.07;6.20;;;;;;;5.54;100.00;62568.66;5019563;28;20249;-76
2023/03/24 01:09:29;;;;;;;9.55;7.40;;;;;;;5.56;100.00;62572.72;5023138;28;20195;-75
2023/03/24 01:11:56;;;;;;;11.20;7.55;;;;;;;5.58;100.00;62574.78;5009306;28;20291;-75
2023/03/24 01:14:23;;;;;;;9.70;7.43;;;;;;;5.54;100.00;62563.09;5025449;28;20253;-75
2023/03/24 01:16:51;;;;;;;9.07;7.75;;;;;;;5.56;100.00;62572.72;5024751;28;20246;-74
2023/03/24 01:19:19;;;;;;;9.85;6.97;;;;;;;5.52;100.00;62568.63;5025349;28;20199;-74
2023/03/24 01:21:47;;;;;;;12.63;7.13;;;;;;;5.51;100.00;62562.53;5024326;28;20249;-75
2023/03/24 01:24:14;;;;;;;7.55;6.35;;;;;;;5.46;100.00;62559.91;5024715;28;20254;-75
2023/03/24 01:26:41;;;;;;;9.05;6.60;;;;;;;5.51;100.00;62565.06;5027105;28;20230;-74
2023/03/24 01:29:08;;;;;;;7.50;6.30;;;;;;;5.51;100.00;62568.09;5020703;28;20268;-74
2023/03/24 01:31:36;;;;;;;10.27;7.35;;;;;;;5.51;100.00;62563.03;5024911;28;20230;-74
2023/03/24 01:34:06;;;;;;;11.98;7.40;;;;;;;5.52;100.00;62571.66;5022616;28;20531;-73
2023/03/24 01:36:32;;;;;;;10.88;8.00;;;;;;;5.52;100.00;62566.09;5009097;28;20227;-73
2023/03/24 01:39:00;;;;;;;8.77;7.38;;;;;;;5.51;100.00;62563.03;5026338;28;20202;-75
2023/03/24 01:41:31;;;;;;;12.45;8.73;;;;;;;5.58;100.00;62569.75;5025982;28;20448;-75
2023/03/24 01:43:59;;;;;;;11.00;7.78;;;;;;;5.59;100.00;62570.78;5028201;28;20210;-74
2023/03/24 01:46:28;;;;;;;11.35;6.57;;;;;;;5.60;100.00;62571.81;5024099;28;20521;-75
2023/03/24 01:49:00;;;;;;;8.18;5.70;;;;;;;5.58;100.00;62574.78;5024111;28;20547;-74
2023/03/24 01:51:33;;;;;;;12.15;7.15;;;;;;;5.53;100.00;62570.16;5027400;28;20229;-74
2023/03/24 01:54:02;;;;;;;9.07;6.95;;;;;;;5.53;100.00;62567.63;5006060;28;20204;-74
2023/03/24 01:56:33;;;;;;;7.07;5.80;;;;;;;5.46;100.00;62557.91;5016461;28;20539;-76
2023/03/24 01:59:04;;;;;;;6.05;5.47;;;;;;;5.41;100.00;62557.28;5024963;28;20359;-74
2023/03/24 02:01:32;;;;;;;7.20;5.50;;;;;;;5.39;100.00;62550.69;5027596;28;20304;-74
2023/03/24 02:04:02;;;;;;;6.68;4.88;;;;;;;5.35;100.00;62551.59;5023638;28;20190;-75
2023/03/24 02:06:34;;;;;;;6.22;5.32;;;;;;;5.29;100.00;62547.97;5023131;28;20222;-74
2023/03/24 02:09:01;;;;;;;8.65;7.20;;;;;;;5.32;100.00;62545.47;5031791;28;20487;-73
2023/03/24 02:11:32;;;;;;;7.85;5.68;;;;;;;5.31;100.00;62542.44;5010978;28;20290;-74
2023/03/24 02:13:59;;;;;;;8.88;6.82;;;;;;;5.30;100.00;62540.88;5015600;28;20508;-74
2023/03/24 02:16:43;;;;;;;9.80;6.32;;;;;;;5.31;100.00;62544.47;5023673;28;20230;-75
2023/03/24 02:19:48;;;;;;;8.25;5.85;;;;;;;5.29;100.00;62542.38;5024175;28;20302;-76
2023/03/24 02:22:52;;;;;;;6.47;5.82;;;;;;;5.28;100.00;62541.88;5023228;28;20468;-76
2023/03/24 02:25:59;;;;;;;8.48;6.15;;;;;;;5.19;100.00;62535.13;5023535;28;20269;-74
2023/03/24 02:28:38;;;;;;;8.10;6.53;;;;;;;5.12;100.00;62522.88;5010849;28;20229;-76
2023/03/24 02:31:37;;;;;;;9.35;6.72;;;;;;;5.14;100.00;62532.50;5041463;28;20197;-76
2023/03/24 02:34:42;;;;;;;7.97;7.15;;;;;;;5.05;100.00;62518.19;4984864;28;20519;-76
2023/03/24 02:37:44;;;;;;;8.63;6.63;;;;;;;5.05;100.00;62515.69;4994020;28;20585;-75
2023/03/24 02:40:23;;;;;;;7.18;6.47;;;;;;;5.02;100.00;62517.63;5017658;28;20411;-73
2023/03/24 02:43:02;;;;;;;6.93;5.95;;;;;;;5.04;100.00;62517.16;5022211;28;20226;-76
2023/03/24 02:45:36;;;;;;;9.13;6.57;;;;;;;5.07;100.00;62517.22;5026309;28;20198;-73
2023/03/24 02:48:22;;;;;;;7.13;6.32;;;;;;;4.97;100.00;62511.97;5025727;28;20245;-75
2023/03/24 02:50:54;;;;;;;9.27;6.65;;;;;;;5.01;100.00;62509.03;5025444;28;20225;-74
2023/03/24 02:53:28;;;;;;;8.27;6.55;;;;;;;5.07;100.00;62519.75;5034279;28;20388;-74
2023/03/24 02:56:00;;;;;;;11.13;7.47;;;;;;;5.14;100.00;62524.94;5035747;28;20208;-74
2023/03/24 02:58:34;;;;;;;9.18;7.22;;;;;;;5.19;100.00;62534.63;5024730;28;20362;-76
2023/03/24 03:01:06;;;;;;;8.05;6.72;;;;;;;5.20;100.00;62531.13;5022243;28;20302;-75
2023/03/24 03:03:38;;;;;;;8.25;7.13;;;;;;;5.26;100.00;62537.31;5024606;28;20245;-76
2023/03/24 03:06:12;;;;;;;7.78;6.00;;;;;;;5.36;100.00;62552.66;5023559;28;20203;-74
2023/03/24 03:08:40;;;;;;;8.27;6.85;;;;;;;5.39;100.00;62555.22;5024777;28;20245;-74
2023/03/24 03:11:14;;;;;;;5.22;4.75;;;;;;;5.45;100.00;62561.41;5023984;28;20201;-75
2023/03/24 03:13:46;;;;;;;6.30;5.70;;;;;;;5.48;100.00;62562.47;5025303;28;20535;-75
2023/03/24 03:16:17;;;;;;;7.47;5.78;;;;;;;5.47;100.00;62561.44;5024105;28;20220;-74
2023/03/24 03:18:50;;;;;;;8.00;6.32;;;;;;;5.47;100.00;62566.50;5021470;28;20273;-75
2023/03/24 03:21:23;;;;;;;8.68;6.65;;;;;;;5.50;100.00;62561.50;5026463;28;20301;-75
2023/03/24 03:23:54;;;;;;;8.02;7.03;;;;;;;5.57;100.00;62571.25;5022134;28;20507;-75
2023/03/24 03:26:27;;;;;;;7.35;5.53;;;;;;;5.58;100.00;62572.78;5021627;28;20272;-75
2023/03/24 03:28:58;;;;;;;8.82;7.55;;;;;;;5.62;100.00;62581.44;5024676;28;20214;-76
2023/03/24 03:31:31;;;;;;;6.65;6.05;;;;;;;5.67;100.00;62579.53;5026795;28;20245;-75
2023/03/24 03:34:08;;;;;;;9.18;5.60;;;;;;;5.70;100.00;62587.66;5039236;28;20248;-75
2023/03/24 03:36:42;;;;;;;9.35;6.95;;;;;;;5.78;100.00;62593.38;5027268;28;20250;-75
2023/03/24 03:39:15;;;;;;;8.88;6.95;;;;;;;5.77;100.00;62592.38;5026725;28;20201;-74
2023/03/24 03:41:44;;;;;;;9.48;6.88;;;;;;;5.75;100.00;62594.81;5017197;28;20249;-76
2023/03/24 03:44:11;;;;;;;8.48;6.03;;;;;;;5.83;100.00;62596.03;5009966;28;20481;-75
2023/03/24 03:46:39;;;;;;;7.38;5.82;;;;;;;5.78;100.00;62592.88;5026959;28;20223;-76
2023/03/24 03:49:07;;;;;;;5.55;5.10;;;;;;;5.73;100.00;62593.28;5027898;28;20266;-76
2023/03/24 03:51:35;;;;;;;7.22;5.13;;;;;;;5.69;100.00;62583.59;5011131;28;20288;-77
2023/03/24 03:54:05;;;;;;;6.32;5.57;;;;;;;5.70;100.00;62585.16;5025218;28;20198;-76
2023/03/24 03:56:35;;;;;;;6.13;4.72;;;;;;;5.67;100.00;62581.53;5027567;28;20218;-75
2023/03/24 03:59:05;;;;;;;6.80;6.10;;;;;;;5.66;100.00;62590.63;5021404;28;20200;-76
2023/03/24 04:01:35;;;;;;;6.88;6.00;;;;;;;5.66;100.00;62580.53;5007895;28;20242;-76
2023/03/24 04:04:18;;;;;;;7.53;6.78;;;;;;;5.64;100.00;62578.97;5019483;28;20198;-75
2023/03/24 04:06:56;;;;;;;17.52;11.55;;;;;;;5.53;100.00;62567.63;5027240;28;20210;-74
2023/03/24 04:09:35;;;;;;;19.40;12.77;;;;;;;5.50;100.00;62566.56;5029682;28;20198;-74
2023/03/24 04:12:17;;;;;;;17.52;12.60;;;;;;;5.40;100.00;62559.28;5024339;28;20440;-74
2023/03/24 04:15:16;;;;;;;17.65;12.73;;;;;;;5.40;100.00;62551.22;5026913;28;20198;-75
2023/03/24 04:17:55;;;;;;;16.45;12.20;;;;;;;5.33;100.00;62546.53;5027608;28;20580;-74
2023/03/24 04:20:31;;;;;;;18.98;11.23;;;;;;;5.29;100.00;62547.97;5033634;28;20226;-75
2023/03/24 04:23:13;;;;;;;15.02;10.50;;;;;;;5.29;100.00;62540.38;5024024;28;20233;-74
2023/03/24 04:25:49;;;;;;;15.15;10.85;;;;;;;5.27;100.00;62540.84;5028563;28;20494;-75
2023/03/24 04:28:25;;;;;;;13.57;9.15;;;;;;;5.30;100.00;62543.41;5010657;28;20214;-76
2023/03/24 04:31:00;;;;;;;12.52;8.70;;;;;;;5.30;100.00;62543.94;5023643;28;20208;-74
2023/03/24 04:33:32;;;;;;;15.00;10.50;;;;;;;5.26;100.00;62544.34;5025245;28;20241;-75
2023/03/24 04:36:05;;;;;;;14.70;9.75;;;;;;;5.26;100.00;62537.31;5015846;28;20222;-75
2023/03/24 04:38:37;;;;;;;11.93;9.38;;;;;;;5.28;100.00;62541.88;5019768;28;20416;-74
2023/03/24 04:41:06;;;;;;;13.30;9.50;;;;;;;5.26;100.00;62536.78;5028972;28;20226;-76
2023/03/24 04:43:36;;;;;;;13.15;9.25;;;;;;;5.28;100.00;62541.88;5030940;28;20194;-74
2023/03/24 04:46:08;;;;;;;14.65;9.68;;;;;;;5.32;100.00;62548.00;5024763;28;20198;-75
2023/03/24 04:48:35;;;;;;;12.88;9.02;;;;;;;5.32;100.00;62546.00;5024544;28;20209;-76
2023/03/24 04:51:04;;;;;;;10.55;8.93;;;;;;;5.32;100.00;62551.03;5024426;28;20476;-76
2023/03/24 04:53:31;;;;;;;12.70;8.15;;;;;;;5.38;100.00;62549.16;5024530;28;20202;-75
2023/03/24 04:56:11;;;;;;;14.48;9.45;;;;;;;5.46;100.00;62559.91;5026772;28;20210;-75
2023/03/24 04:58:38;;;;;;;22.20;12.95;;;;;;;5.50;100.00;62567.06;5022853;28;20203;-74
2023/03/24 05:01:07;;;;;;;12.23;9.80;;;;;;;5.53;100.00;62567.63;5023679;28;20285;-75
2023/03/24 05:03:36;;;;;;;11.90;9.18;;;;;;;5.49;100.00;62560.47;5023170;28;20198;-75
2023/03/24 05:06:06;;;;;;;16.25;10.90;;;;;;;5.52;100.00;62571.66;5026170;28;20207;-76
2023/03/24 05:08:33;;;;;;;14.20;11.05;;;;;;;5.64;100.00;62576.44;5023463;28;20233;-76
2023/03/24 05:11:00;;;;;;;17.30;11.40;;;;;;;5.72;100.00;62589.22;5014820;28;20203;-76
2023/03/24 05:13:27;;;;;;;17.65;12.23;;;;;;;5.85;100.00;62602.63;5007075;28;20372;-76
2023/03/24 05:15:54;;;;;;;17.60;12.80;;;;;;;5.94;100.00;62609.38;5010315;28;20401;-74
2023/03/24 05:18:23;;;;;;;19.90;13.07;;;;;;;6.04;100.00;62619.19;5023992;28;20284;-74
2023/03/24 05:20:50;;;;;;;19.35;13.35;;;;;;;6.11;100.00;62623.88;5028476;28;20226;-74
2023/03/24 05:23:17;;;;;;;13.98;11.07;;;;;;;6.19;100.00;62627.56;5025563;28;20434;-74
2023/03/24 05:25:46;;;;;;;13.20;10.55;;;;;;;6.29;100.00;62642.41;5022644;28;20229;-75
2023/03/24 05:28:13;;;;;;;14.23;9.95;;;;;;;6.36;100.00;62657.75;5027351;28;20218;-74
2023/03/24 05:30:40;;;;;;;15.55;11.30;;;;;;;6.48;100.00;62667.06;5028187;28;20203;-74
2023/03/24 05:33:07;;;;;;;15.95;11.02;;;;;;;6.47;100.00;62663.50;5044677;28;20241;-76
2023/03/24 05:35:35;;;;;;;16.75;11.57;;;;;;;6.60;100.00;62677.44;5017096;28;20202;-75
2023/03/24 05:38:02;;;;;;;20.02;12.43;;;;;;;6.68;100.00;62685.66;5045572;28;20411;-76
2023/03/24 05:40:29;;;;;;;17.67;13.30;;;;;;;6.79;100.00;62693.97;5038515;28;20199;-74
2023/03/24 05:42:56;;;;;;;25.35;15.35;;;;;;;6.88;100.00;62708.31;5031904;28;20231;-74
2023/03/24 05:45:24;;;;;;;24.50;16.00;;;;;;;6.99;100.00;62722.72;5020577;28;20210;-76
2023/03/24 05:47:51;;;;;;;21.10;14.52;;;;;;;6.95;100.00;62710.47;5024818;28;20375;-76
2023/03/24 05:50:18;;;;;;;23.33;15.98;;;;;;;6.85;100.00;62700.66;5033295;28;20205;-74
2023/03/24 05:52:46;;;;;;;20.38;15.20;;;;;;;6.85;100.00;62705.22;5037024;28;20249;-75
2023/03/24 05:55:14;;;;;;;23.27;14.75;;;;;;;6.88;100.00;62706.31;5027466;28;20195;-76
2023/03/24 05:57:42;;;;;;;23.60;15.38;;;;;;;7.01;100.00;62721.72;5034000;28;20221;-76
2023/03/24 06:00:15;;;;;;;25.40;15.88;;;;;;;7.12;100.00;62735.09;5044944;28;20194;-76
2023/03/24 06:02:42;;;;;;;24.40;16.17;;;;;;;7.20;100.00;62738.28;5019598;28;20238;-76
2023/03/24 06:05:09;;;;;;;23.80;15.93;;;;;;;7.14;100.00;62732.09;5023277;28;20203;-75
2023/03/24 06:07:37;;;;;;;23.27;15.43;;;;;;;7.32;100.00;62751.19;5024619;28;20225;-74
2023/03/24 06:10:06;;;;;;;25.42;16.00;;;;;;;7.42;100.00;62761.00;5024615;28;20199;-75
2023/03/24 06:12:33;;;;;;;26.15;16.15;;;;;;;7.40;100.00;62761.47;5022993;28;20511;-76
2023/03/24 06:15:00;;;;;;;25.85;16.45;;;;;;;7.50;100.00;62772.28;5025234;28;20227;-75
2023/03/24 06:17:30;;;;;;;25.63;15.52;;;;;;;7.68;100.00;62787.84;5023259;28;20242;-75
2023/03/24 06:20:04;;;;;;;24.13;15.40;;;;;;;7.79;100.00;62799.19;5005153;28;20203;-74
2023/03/24 06:22:33;;;;;;;27.80;16.88;;;;;;;7.90;100.00;62805.97;5024340;28;20226;-75
2023/03/24 06:25:01;;;;;;;31.40;16.17;;;;;;;8.07;100.00;62828.09;5026050;28;20198;-75
2023/03/24 06:27:29;;;;;;;25.08;17.38;;;;;;;8.27;100.00;62848.25;5014912;28;20294;-74
2023/03/24 06:29:57;;;;;;;30.70;17.55;;;;;;;8.44;100.00;62866.31;5006719;28;20207;-75
2023/03/24 06:32:25;;;;;;;25.10;16.55;;;;;;;8.50;100.00;62866.94;5027288;28;20242;-75
2023/03/24 06:34:52;;;;;;;35.58;17.60;;;;;;;8.53;100.00;62875.09;5023412;28;20514;-74
2023/03/24 06:37:21;;;;;;;32.50;17.23;;;;;;;8.66;100.00;62889.03;5024305;28;20261;-74
2023/03/24 06:39:49;;;;;;;33.25;19.83;;;;;;;8.68;100.00;62893.16;5026210;28;20198;-74
2023/03/24 06:42:17;;;;;;;25.00;16.52;;;;;;;8.70;100.00;62898.25;5025401;28;20273;-75
2023/03/24 06:44:45;;;;;;;32.97;17.48;;;;;;;8.69;100.00;62894.69;5023515;28;20230;-75
2023/03/24 06:47:13;;;;;;;26.60;17.52;;;;;;;8.68;100.00;62888.06;5028407;28;20222;-76
2023/03/24 06:49:40;;;;;;;30.85;18.35;;;;;;;8.82;100.00;62903.03;5024691;28;20530;-74
2023/03/24 06:52:07;;;;;;;31.55;18.75;;;;;;;8.80;100.00;62906.03;5007390;28;20223;-74
2023/03/24 06:54:33;;;;;;;30.08;17.48;;;;;;;8.83;100.00;62906.63;5004476;28;20450;-75
2023/03/24 06:57:00;;;;;;;32.05;17.88;;;;;;;8.91;100.00;62914.38;5006870;28;20317;-74
2023/03/24 06:59:28;;;;;;;27.05;17.77;;;;;;;9.16;100.00;62942.75;5006805;28;20246;-74
2023/03/24 07:01:57;;;;;;;36.70;20.38;;;;;;;9.36;100.00;62960.88;5025434;28;20419;-75
2023/03/24 07:04:24;;;;;;;29.75;18.15;;;;;;;9.38;100.00;62959.88;5022092;28;20448;-76
2023/03/24 07:06:51;;;;;;;28.08;18.58;;;;;;;9.28;100.00;62950.06;5016808;28;20253;-74
2023/03/24 07:09:18;;;;;;;32.63;19.73;;;;;;;9.40;100.00;62970.09;5022877;28;20270;-75
2023/03/24 07:11:45;;;;;;;29.27;19.48;;;;;;;9.41;100.00;62968.06;5025874;28;20214;-76
2023/03/24 07:14:12;;;;;;;26.33;18.25;;;;;;;9.33;100.00;62958.31;5025817;28;20202;-76
2023/03/24 07:16:39;;;;;;;30.95;18.48;;;;;;;9.41;100.00;62962.97;5028426;28;20226;-76
2023/03/24 07:19:08;;;;;;;30.10;19.50;;;;;;;9.43;100.00;62968.13;5029575;28;20405;-75
2023/03/24 07:21:35;;;;;;;27.80;18.42;;;;;;;9.54;100.00;62978.97;5027708;28;20284;-75
2023/03/24 07:24:02;;;;;;;26.65;18.55;;;;;;;9.53;100.00;62978.44;5027041;28;20199;-77
2023/03/24 07:26:29;;;;;;;25.23;16.17;;;;;;;9.73;100.00;63001.16;5019111;28;20233;-74
2023/03/24 07:28:56;;;;;;;32.65;18.55;;;;;;;9.88;100.00;63011.59;5029744;28;20222;-77
2023/03/24 07:31:23;;;;;;;30.73;17.33;;;;;;;9.87;100.00;63010.56;5028426;28;20312;-76
2023/03/24 07:33:50;;;;;;;26.02;17.50;;;;;;;10.04;100.00;63033.22;5027795;28;20211;-75
2023/03/24 07:36:18;;;;;;;29.73;17.85;;;;;;;10.11;99.53;63043.03;5028335;28;20199;-74
2023/03/24 07:38:45;;;;;;;25.27;17.33;;;;;;;10.32;100.00;63065.28;5029121;28;20387;-75
2023/03/24 07:41:13;;;;;;;28.23;17.50;;;;;;;10.40;98.80;63067.97;5027766;28;20215;-77
2023/03/24 07:43:40;;;;;;;32.45;18.00;;;;;;;10.36;98.16;63066.88;5026399;28;20195;-76
2023/03/24 07:46:06;;;;;;;31.92;17.20;;;;;;;10.51;98.15;63086.97;5028251;28;20198;-77
2023/03/24 07:48:33;;;;;;;26.13;16.60;;;;;;;10.70;96.78;63098.50;5027982;28;20203;-77
2023/03/24 07:51:00;;;;;;;27.23;17.30;;;;;;;10.76;93.50;63102.16;5027820;28;20206;-74
2023/03/24 07:53:29;;;;;;;30.20;16.20;;;;;;;10.83;93.85;63114.47;5027600;28;20245;-75
2023/03/24 07:55:55;;;;;;;25.48;15.65;;;;;;;10.95;92.66;63122.34;5011266;28;20204;-74
2023/03/24 07:58:22;;;;;;;24.45;15.88;;;;;;;10.95;90.75;63126.91;5007810;28;20386;-78
2023/03/24 08:00:49;;;;;;;19.60;14.98;;;;;;;11.00;89.99;63132.59;5014879;28;20211;-76
2023/03/24 08:03:16;;;;;;;21.00;12.50;;;;;;;11.12;86.21;63145.03;5028330;28;20234;-76
2023/03/24 08:05:45;;;;;;;22.83;14.73;;;;;;;11.31;85.38;63164.19;5026612;28;20258;-75
2023/03/24 08:08:11;;;;;;;22.08;14.38;;;;;;;11.50;84.95;63184.38;5027292;28;20211;-74
2023/03/24 08:10:40;;;;;;;24.00;15.15;;;;;;;11.68;85.94;63202.53;5027535;28;20265;-76
2023/03/24 08:13:06;;;;;;;21.52;14.60;;;;;;;11.74;85.22;63200.56;5030285;28;20230;-75
2023/03/24 08:15:33;;;;;;;21.45;14.80;;;;;;;11.64;83.42;63198.41;5028904;28;20306;-75
2023/03/24 08:18:00;;;;;;;22.23;14.60;;;;;;;11.79;85.69;63208.81;5027239;28;20222;-74
2023/03/24 08:20:28;;;;;;;27.33;14.73;;;;;;;11.97;82.38;63227.50;5025599;28;20195;-76
2023/03/24 08:22:55;;;;;;;27.85;15.52;;;;;;;11.96;80.60;63225.94;5029013;28;20242;-75
2023/03/24 08:25:24;;;;;;;28.60;14.13;;;;;;;11.84;78.98;63219.09;5026355;28;20261;-75
2023/03/24 08:27:53;;;;;;;21.70;13.82;;;;;;;11.87;80.00;63219.16;5027539;28;20221;-77
2023/03/24 08:30:22;;;;;;;21.70;14.50;;;;;;;11.90;80.45;63217.16;5025426;28;20207;-74
2023/03/24 08:32:51;;;;;;;23.02;14.10;;;;;;;12.07;78.70;63239.88;5029024;28;20574;-74
2023/03/24 08:35:21;;;;;;;19.20;13.48;;;;;;;12.08;77.71;63241.44;5028001;28;20222;-75
2023/03/24 08:37:47;;;;;;;23.33;13.68;;;;;;;12.11;76.71;63244.56;5026564;28;20265;-75
2023/03/24 08:40:18;;;;;;;21.90;14.27;;;;;;;12.22;75.14;63255.41;5028460;28;20411;-75
2023/03/24 08:42:47;;;;;;;22.98;14.40;;;;;;;12.39;76.27;63278.16;5026690;28;20253;-76
2023/03/24 08:45:19;;;;;;;21.00;13.52;;;;;;;12.62;74.64;63294.84;5022289;28;20203;-74
2023/03/24 08:47:47;;;;;;;21.67;13.57;;;;;;;12.76;71.52;63309.38;5023249;28;20314;-76
2023/03/24 08:50:14;;;;;;;20.80;13.70;;;;;;;12.74;71.24;63312.41;5028782;28;20213;-76
2023/03/24 08:52:41;;;;;;;15.98;11.80;;;;;;;12.80;71.35;63318.13;5018766;28;20232;-77
2023/03/24 08:55:10;;;;;;;16.67;11.63;;;;;;;12.99;69.64;63339.84;5025299;28;20233;-75
2023/03/24 08:57:37;;;;;;;21.58;11.10;;;;;;;13.02;70.10;63342.97;5029368;28;20226;-75
2023/03/24 09:00:11;;;;;;;27.45;14.15;;;;;;;13.11;68.63;63349.75;5026247;28;20210;-75
2023/03/24 09:02:39;;;;;;;15.68;12.10;;;;;;;13.29;68.20;63368.94;5022455;28;20229;-77
2023/03/24 09:05:06;;;;;;;15.57;11.20;;;;;;;13.32;65.89;63369.50;5027738;28;20207;-77
2023/03/24 09:07:33;;;;;;;12.65;11.30;;;;;;;13.37;65.54;63374.72;5027642;28;20222;-76
2023/03/24 09:10:00;;;;;;;16.83;11.30;;;;;;;13.55;65.73;63395.41;5026049;28;20203;-76
2023/03/24 09:12:28;;;;;;;17.30;10.60;;;;;;;13.75;64.52;63413.63;5022733;28;20570;-76
2023/03/24 09:14:55;;;;;;;16.85;11.07;;;;;;;13.87;62.69;63434.25;5020884;28;20249;-78
2023/03/24 09:17:22;;;;;;;15.88;11.43;;;;;;;13.94;62.03;63430.78;5025710;28;20451;-75
2023/03/24 09:19:51;;;;;;;16.27;10.43;;;;;;;14.11;60.50;63453.53;5014192;28;20221;-76
2023/03/24 09:22:18;;;;;;;16.70;10.70;;;;;;;14.18;59.07;63460.81;5025870;28;20554;-77
2023/03/24 09:24:47;;;;;;;20.83;12.23;;;;;;;13.99;61.04;63438.00;5025534;28;20421;-77
2023/03/24 09:27:15;;;;;;;18.65;12.20;;;;;;;14.00;59.67;63434.44;5025360;28;20293;-76
2023/03/24 09:29:42;;;;;;;24.83;11.27;;;;;;;14.19;60.46;63461.84;5027338;28;20245;-76
2023/03/24 09:32:09;;;;;;;15.52;11.30;;;;;;;14.39;58.18;63482.13;5025890;28;20245;-76
2023/03/24 09:34:37;;;;;;;18.38;11.00;;;;;;;14.38;57.88;63476.47;5025734;28;20525;-77
2023/03/24 09:37:05;;;;;;;18.40;11.73;;;;;;;14.55;57.11;63499.25;5024155;28;20233;-75
2023/03/24 09:39:36;;;;;;;13.00;10.73;;;;;;;14.76;57.31;63523.63;5024977;28;20210;-75
2023/03/24 09:42:04;;;;;;;13.80;9.57;;;;;;;14.88;54.59;63533.53;5012838;28;20260;-75
2023/03/24 09:44:37;;;;;;;13.43;10.00;;;;;;;15.03;54.45;63546.53;5026369;28;20206;-76
2023/03/24 09:47:13;;;;;;;9.93;8.65;;;;;;;14.97;53.21;63539.78;5012363;28;20485;-76
2023/03/24 09:49:43;;;;;;;12.75;9.45;;;;;;;14.98;53.24;63545.97;5028820;28;20205;-77
2023/03/24 09:52:15;;;;;;;12.80;9.35;;;;;;;15.19;52.97;63567.78;5015703;28;20231;-77
2023/03/24 09:54:48;;;;;;;12.65;9.10;;;;;;;15.34;53.87;63577.72;5020423;28;20212;-76
2023/03/24 09:57:22;;;;;;;12.68;9.43;;;;;;;15.53;53.77;63600.56;5028495;28;20214;-75
2023/03/24 09:59:49;;;;;;;17.30;9.63;;;;;;;15.70;51.83;63615.66;5031906;28;20222;-76
2023/03/24 10:02:19;;;;;;;14.60;9.02;;;;;;;15.73;51.19;63620.84;5020875;28;20226;-75
2023/03/24 10:04:47;;;;;;;13.13;9.07;;;;;;;15.77;51.77;63622.94;5026072;28;20213;-74
2023/03/24 10:07:24;;;;;;;13.20;9.52;;;;;;;15.87;51.29;63632.84;5025710;28;20221;-75
2023/03/24 10:09:56;;;;;;;14.30;9.10;;;;;;;15.82;51.48;63627.66;5019351;28;20259;-75
2023/03/24 10:12:35;;;;;;;13.35;8.93;;;;;;;15.95;50.97;63643.72;5024549;28;20229;-77
2023/03/24 10:15:15;;;;;;;10.48;8.68;;;;;;;16.00;50.33;63646.34;5009641;28;20193;-76
2023/03/24 10:17:52;;;;;;;10.70;8.50;;;;;;;15.91;49.47;63639.56;5024585;28;20221;-75
2023/03/24 10:20:29;;;;;;;15.65;9.40;;;;;;;16.04;49.54;63653.09;5019622;28;20190;-76
2023/03/24 10:23:04;;;;;;;14.25;9.50;;;;;;;16.11;47.96;63658.31;5020486;28;20229;-75
2023/03/24 10:25:44;;;;;;;10.63;8.60;;;;;;;16.07;49.57;63659.28;5027748;28;20217;-77
2023/03/24 10:28:18;;;;;;;10.30;9.20;;;;;;;16.30;48.96;63677.03;5024207;28;20225;-76
2023/03/24 10:30:48;;;;;;;12.95;8.60;;;;;;;16.42;47.76;63686.94;5025126;28;20210;-77
2023/03/24 10:33:15;;;;;;;10.55;8.35;;;;;;;16.52;47.93;63707.66;5027953;28;20237;-78
2023/03/24 10:35:49;;;;;;;12.15;8.63;;;;;;;16.39;48.24;63688.97;5026360;28;20410;-77
2023/03/24 10:38:19;;;;;;;11.88;8.18;;;;;;;16.48;47.99;63693.22;5024113;28;20222;-76
2023/03/24 10:40:48;;;;;;;9.85;8.52;;;;;;;16.46;47.93;63701.94;5026356;28;20217;-75
2023/03/24 10:43:17;;;;;;;14.30;8.93;;;;;;;16.46;47.07;63698.81;5024722;28;20480;-75
2023/03/24 10:45:48;;;;;;;13.05;7.93;;;;;;;16.52;46.10;63705.06;5007760;28;20217;-77
2023/03/24 10:48:41;;;;;;;9.48;7.90;;;;;;;16.71;46.20;63724.84;5022918;28;20226;-76
2023/03/24 10:51:15;;;;;;;13.25;7.95;;;;;;;16.85;45.56;63739.41;5026647;28;20220;-77
2023/03/24 10:53:46;;;;;;;10.13;8.48;;;;;;;16.94;45.13;63751.88;5022796;28;20198;-75
2023/03/24 10:56:16;;;;;;;14.10;8.85;;;;;;;16.88;44.52;63740.47;5025145;28;20266;-74
2023/03/24 10:58:45;;;;;;;12.98;8.55;;;;;;;17.00;44.37;63752.97;5021865;28;20201;-77
2023/03/24 11:01:25;;;;;;;14.38;10.32;;;;;;;16.96;43.24;63748.28;5026824;28;20206;-76
2023/03/24 11:03:52;;;;;;;14.10;9.05;;;;;;;16.96;43.78;63748.81;5021715;28;20257;-77
2023/03/24 11:06:21;;;;;;;13.07;10.52;;;;;;;17.15;43.89;63770.66;5019477;28;20198;-76
2023/03/24 11:09:08;;;;;;;13.85;9.57;;;;;;;17.14;44.33;63767.53;5025786;28;20198;-76
2023/03/24 11:11:35;;;;;;;15.65;9.75;;;;;;;17.32;43.34;63788.34;5025311;28;20233;-74
2023/03/24 11:14:03;;;;;;;11.95;9.60;;;;;;;17.40;43.38;63793.56;5024194;28;20282;-76
2023/03/24 11:16:32;;;;;;;13.93;9.15;;;;;;;17.32;43.53;63788.84;5019257;28;20218;-77
2023/03/24 11:19:01;;;;;;;9.70;8.70;;;;;;;17.08;42.98;63760.78;5028721;28;20468;-76
2023/03/24 11:21:30;;;;;;;14.35;9.50;;;;;;;16.82;43.98;63733.72;5023923;28;20241;-76
2023/03/24 11:24:01;;;;;;;12.48;9.07;;;;;;;16.70;44.56;63721.75;5004775;28;20412;-76
2023/03/24 11:26:33;;;;;;;12.10;9.93;;;;;;;16.96;43.98;63748.28;5019700;28;20226;-75
2023/03/24 11:29:03;;;;;;;16.38;9.18;;;;;;;17.02;43.64;63749.91;5029044;28;20266;-79
2023/03/24 11:31:31;;;;;;;10.45;8.93;;;;;;;16.98;43.17;63750.88;5026975;28;20240;-73
2023/03/24 11:34:02;;;;;;;10.13;8.55;;;;;;;17.19;41.52;63777.91;5023571;28;20206;-76
2023/03/24 11:36:48;;;;;;;12.60;9.00;;;;;;;17.34;41.52;63790.44;5024272;28;20226;-76
2023/03/24 11:39:22;;;;;;;12.70;8.95;;;;;;;17.49;41.48;63802.97;5026901;28;20229;-76
2023/03/24 11:42:01;;;;;;;10.65;9.05;;;;;;;17.54;42.06;63810.72;5023797;28;20256;-77